sensor_id;sensor_type;location;lat;lon;timestamp;pressure;altitude;pressure_sealevel;temperature;humidity
51195;BME280;37259;49.972;19.850;2023-01-31T00:00:55;98010;;;1.9;88.6
51195;BME280;37259;49.972;19.850;2023-01-31T00:01:55;98010;;;1.9;88.6
51195;BME280;37259;49.972;19.850;2023-01-31T00:02:55;98000;;;1.8;88.8
51195;BME280;37259;49.972;19.850;2023-01-31T00:03:56;98000;;;1.8;88.8
51195;BME280;37259;49.972;19.850;2023-01-31T00:04:55;98000;;;1.8;89
51195;BME280;37259;49.972;19.850;2023-01-31T00:05:55;98000;;;1.8;89
51195;BME280;37259;49.972;19.850;2023-01-31T00:06:55;98000;;;1.8;89
51195;BME280;37259;49.972;19.850;2023-01-31T00:08:56;98000;;;1.8;89.1
51195;BME280;37259;49.972;19.850;2023-01-31T00:09:55;98010;;;1.7;89.4
51195;BME280;37259;49.972;19.850;2023-01-31T00:10:57;98010;;;1.7;89.4
51195;BME280;37259;49.972;19.850;2023-01-31T00:11:55;98010;;;1.8;89.5
51195;BME280;37259;49.972;19.850;2023-01-31T00:12:55;98000;;;1.7;89.6
51195;BME280;37259;49.972;19.850;2023-01-31T00:13:56;98000;;;1.7;89.6
51195;BME280;37259;49.972;19.850;2023-01-31T00:14:55;98000;;;1.7;89.7
51195;BME280;37259;49.972;19.850;2023-01-31T00:15:55;98000;;;1.7;89.7
51195;BME280;37259;49.972;19.850;2023-01-31T00:16:55;98000;;;1.7;89.7
51195;BME280;37259;49.972;19.850;2023-01-31T00:17:55;98010;;;1.7;89.8
51195;BME280;37259;49.972;19.850;2023-01-31T00:18:55;98010;;;1.7;89.8
51195;BME280;37259;49.972;19.850;2023-01-31T00:19:55;98010;;;1.7;89.8
51195;BME280;37259;49.972;19.850;2023-01-31T00:20:55;98010;;;1.7;89.9
51195;BME280;37259;49.972;19.850;2023-01-31T00:21:55;98010;;;1.7;89.9
51195;BME280;37259;49.972;19.850;2023-01-31T00:22:55;98010;;;1.7;90
51195;BME280;37259;49.972;19.850;2023-01-31T00:23:56;98010;;;1.7;90
51195;BME280;37259;49.972;19.850;2023-01-31T00:24:55;98010;;;1.7;90
51195;BME280;37259;49.972;19.850;2023-01-31T00:26:05;98010;;;1.7;90
51195;BME280;37259;49.972;19.850;2023-01-31T00:26:55;98010;;;1.7;90
51195;BME280;37259;49.972;19.850;2023-01-31T00:27:55;98010;;;1.7;90
51195;BME280;37259;49.972;19.850;2023-01-31T00:28:56;98010;;;1.7;90
51195;BME280;37259;49.972;19.850;2023-01-31T00:29:55;98010;;;1.7;90
51195;BME280;37259;49.972;19.850;2023-01-31T00:30:56;98020;;;1.7;90.1
51195;BME280;37259;49.972;19.850;2023-01-31T00:31:55;98020;;;1.7;90.1
51195;BME280;37259;49.972;19.850;2023-01-31T00:32:55;98030;;;1.7;90.1
51195;BME280;37259;49.972;19.850;2023-01-31T00:33:56;98030;;;1.7;90.1
51195;BME280;37259;49.972;19.850;2023-01-31T00:34:55;98030;;;1.7;90.2
51195;BME280;37259;49.972;19.850;2023-01-31T00:35:55;98030;;;1.7;90.2
51195;BME280;37259;49.972;19.850;2023-01-31T00:36:55;98030;;;1.7;90.2
51195;BME280;37259;49.972;19.850;2023-01-31T00:37:55;98030;;;1.8;90.2
51195;BME280;37259;49.972;19.850;2023-01-31T00:38:56;98030;;;1.8;90.2
51195;BME280;37259;49.972;19.850;2023-01-31T00:39:55;98030;;;1.8;90.1
51195;BME280;37259;49.972;19.850;2023-01-31T00:40:55;98030;;;1.8;90
51195;BME280;37259;49.972;19.850;2023-01-31T00:41:55;98030;;;1.8;90
51195;BME280;37259;49.972;19.850;2023-01-31T00:42:55;98030;;;1.8;89.9
51195;BME280;37259;49.972;19.850;2023-01-31T00:43:55;98030;;;1.8;89.9
51195;BME280;37259;49.972;19.850;2023-01-31T00:44:55;98030;;;1.8;89.9
51195;BME280;37259;49.972;19.850;2023-01-31T00:45:55;98030;;;1.8;89.9
51195;BME280;37259;49.972;19.850;2023-01-31T00:46:55;98040;;;1.8;89.9
51195;BME280;37259;49.972;19.850;2023-01-31T00:47:55;98030;;;1.8;89.8
51195;BME280;37259;49.972;19.850;2023-01-31T00:48:55;98030;;;1.8;89.8
51195;BME280;37259;49.972;19.850;2023-01-31T00:49:55;98030;;;1.8;89.8
51195;BME280;37259;49.972;19.850;2023-01-31T00:50:55;98030;;;1.8;89.8
51195;BME280;37259;49.972;19.850;2023-01-31T00:51:55;98030;;;1.8;89.8
51195;BME280;37259;49.972;19.850;2023-01-31T00:52:55;98030;;;1.8;89.7
51195;BME280;37259;49.972;19.850;2023-01-31T00:53:55;98030;;;1.8;89.7
51195;BME280;37259;49.972;19.850;2023-01-31T00:54:55;98040;;;1.8;89.6
51195;BME280;37259;49.972;19.850;2023-01-31T00:56:00;98040;;;1.8;89.5
51195;BME280;37259;49.972;19.850;2023-01-31T00:56:55;98030;;;1.8;89.5
51195;BME280;37259;49.972;19.850;2023-01-31T00:57:55;98030;;;1.8;89.5
51195;BME280;37259;49.972;19.850;2023-01-31T00:58:55;98040;;;1.8;89.6
51195;BME280;37259;49.972;19.850;2023-01-31T00:59:55;98040;;;1.8;89.6
51195;BME280;37259;49.972;19.850;2023-01-31T01:00:55;98040;;;1.8;89.5
51195;BME280;37259;49.972;19.850;2023-01-31T01:01:55;98040;;;1.8;89.6
51195;BME280;37259;49.972;19.850;2023-01-31T01:02:55;98040;;;1.8;89.6
51195;BME280;37259;49.972;19.850;2023-01-31T01:03:56;98040;;;1.7;89.9
51195;BME280;37259;49.972;19.850;2023-01-31T01:04:55;98040;;;1.7;89.9
51195;BME280;37259;49.972;19.850;2023-01-31T01:05:55;98040;;;1.7;90
51195;BME280;37259;49.972;19.850;2023-01-31T01:06:55;98040;;;1.7;90
51195;BME280;37259;49.972;19.850;2023-01-31T01:07:55;98040;;;1.7;90
51195;BME280;37259;49.972;19.850;2023-01-31T01:08:55;98040;;;1.6;90.1
51195;BME280;37259;49.972;19.850;2023-01-31T01:09:55;98040;;;1.6;90.1
51195;BME280;37259;49.972;19.850;2023-01-31T01:10:55;98040;;;1.6;90.2
51195;BME280;37259;49.972;19.850;2023-01-31T01:11:55;98040;;;1.6;90.2
51195;BME280;37259;49.972;19.850;2023-01-31T01:12:55;98040;;;1.6;90.3
51195;BME280;37259;49.972;19.850;2023-01-31T01:13:55;98040;;;1.6;90.3
51195;BME280;37259;49.972;19.850;2023-01-31T01:14:55;98050;;;1.6;90.4
51195;BME280;37259;49.972;19.850;2023-01-31T01:15:55;98060;;;1.6;90.4
51195;BME280;37259;49.972;19.850;2023-01-31T01:16:55;98060;;;1.6;90.5
51195;BME280;37259;49.972;19.850;2023-01-31T01:17:55;98060;;;1.6;90.5
51195;BME280;37259;49.972;19.850;2023-01-31T01:18:55;98060;;;1.5;90.8
51195;BME280;37259;49.972;19.850;2023-01-31T01:19:55;98060;;;1.6;90.8
51195;BME280;37259;49.972;19.850;2023-01-31T01:20:55;98060;;;1.6;90.8
51195;BME280;37259;49.972;19.850;2023-01-31T01:21:55;98060;;;1.6;90.9
51195;BME280;37259;49.972;19.850;2023-01-31T01:22:55;98070;;;1.6;90.9
51195;BME280;37259;49.972;19.850;2023-01-31T01:23:56;98060;;;1.6;90.9
51195;BME280;37259;49.972;19.850;2023-01-31T01:24:55;98060;;;1.6;90.9
51195;BME280;37259;49.972;19.850;2023-01-31T01:25:55;98060;;;1.6;90.9
51195;BME280;37259;49.972;19.850;2023-01-31T01:26:55;98060;;;1.6;91
51195;BME280;37259;49.972;19.850;2023-01-31T01:27:55;98060;;;1.6;91
51195;BME280;37259;49.972;19.850;2023-01-31T01:28:56;98060;;;1.6;91
51195;BME280;37259;49.972;19.850;2023-01-31T01:29:55;98060;;;1.6;91.1
51195;BME280;37259;49.972;19.850;2023-01-31T01:30:55;98060;;;1.6;91.1
51195;BME280;37259;49.972;19.850;2023-01-31T01:31:55;98060;;;1.7;91.1
51195;BME280;37259;49.972;19.850;2023-01-31T01:32:55;98060;;;1.7;91.1
51195;BME280;37259;49.972;19.850;2023-01-31T01:33:55;98060;;;1.7;91.1
51195;BME280;37259;49.972;19.850;2023-01-31T01:34:55;98060;;;1.8;91.1
51195;BME280;37259;49.972;19.850;2023-01-31T01:35:58;98070;;;1.8;91
51195;BME280;37259;49.972;19.850;2023-01-31T01:36:55;98070;;;1.8;91
51195;BME280;37259;49.972;19.850;2023-01-31T01:37:55;98060;;;1.8;91
51195;BME280;37259;49.972;19.850;2023-01-31T01:38:55;98060;;;1.8;91
51195;BME280;37259;49.972;19.850;2023-01-31T01:39:55;98070;;;1.8;91
51195;BME280;37259;49.972;19.850;2023-01-31T01:40:55;98070;;;1.8;91
51195;BME280;37259;49.972;19.850;2023-01-31T01:41:55;98070;;;1.8;90.9
51195;BME280;37259;49.972;19.850;2023-01-31T01:42:56;98070;;;1.8;90.9
51195;BME280;37259;49.972;19.850;2023-01-31T01:43:56;98070;;;1.8;90.9
51195;BME280;37259;49.972;19.850;2023-01-31T01:44:56;98070;;;1.8;90.9
51195;BME280;37259;49.972;19.850;2023-01-31T01:45:55;98080;;;1.8;90.8
51195;BME280;37259;49.972;19.850;2023-01-31T01:46:55;98080;;;1.8;90.8
51195;BME280;37259;49.972;19.850;2023-01-31T01:47:56;98080;;;1.8;90.8
51195;BME280;37259;49.972;19.850;2023-01-31T01:48:56;98080;;;1.8;90.7
51195;BME280;37259;49.972;19.850;2023-01-31T01:49:56;98080;;;1.8;90.7
51195;BME280;37259;49.972;19.850;2023-01-31T01:50:55;98080;;;1.8;90.7
51195;BME280;37259;49.972;19.850;2023-01-31T01:51:56;98080;;;1.8;90.7
51195;BME280;37259;49.972;19.850;2023-01-31T01:52:56;98080;;;1.8;90.7
51195;BME280;37259;49.972;19.850;2023-01-31T01:53:56;98080;;;1.8;90.7
51195;BME280;37259;49.972;19.850;2023-01-31T01:54:56;98090;;;1.8;90.8
51195;BME280;37259;49.972;19.850;2023-01-31T01:55:56;98090;;;1.8;90.8
51195;BME280;37259;49.972;19.850;2023-01-31T01:56:57;98090;;;1.8;90.8
51195;BME280;37259;49.972;19.850;2023-01-31T01:57:56;98090;;;1.8;90.8
51195;BME280;37259;49.972;19.850;2023-01-31T01:58:56;98090;;;1.8;90.8
51195;BME280;37259;49.972;19.850;2023-01-31T01:59:57;98090;;;1.7;90.8
51195;BME280;37259;49.972;19.850;2023-01-31T02:00:55;98090;;;1.7;90.9
51195;BME280;37259;49.972;19.850;2023-01-31T02:01:55;98090;;;1.7;90.9
51195;BME280;37259;49.972;19.850;2023-01-31T02:02:56;98090;;;1.7;91
51195;BME280;37259;49.972;19.850;2023-01-31T02:03:55;98090;;;1.8;91.1
51195;BME280;37259;49.972;19.850;2023-01-31T02:04:55;98090;;;1.8;91.1
51195;BME280;37259;49.972;19.850;2023-01-31T02:05:56;98100;;;1.8;91
51195;BME280;37259;49.972;19.850;2023-01-31T02:06:55;98100;;;1.8;91
51195;BME280;37259;49.972;19.850;2023-01-31T02:07:55;98100;;;1.8;91
51195;BME280;37259;49.972;19.850;2023-01-31T02:08:55;98100;;;1.8;90.9
51195;BME280;37259;49.972;19.850;2023-01-31T02:09:56;98100;;;1.8;90.9
51195;BME280;37259;49.972;19.850;2023-01-31T02:10:56;98100;;;1.8;91
51195;BME280;37259;49.972;19.850;2023-01-31T02:11:55;98090;;;1.8;90.9
51195;BME280;37259;49.972;19.850;2023-01-31T02:12:55;98090;;;1.8;90.9
51195;BME280;37259;49.972;19.850;2023-01-31T02:13:56;98100;;;1.8;91
51195;BME280;37259;49.972;19.850;2023-01-31T02:14:55;98100;;;1.8;91
51195;BME280;37259;49.972;19.850;2023-01-31T02:15:56;98110;;;1.8;91
51195;BME280;37259;49.972;19.850;2023-01-31T02:16:55;98110;;;1.8;91
51195;BME280;37259;49.972;19.850;2023-01-31T02:17:55;98100;;;1.8;90.9
51195;BME280;37259;49.972;19.850;2023-01-31T02:18:55;98100;;;1.8;91
51195;BME280;37259;49.972;19.850;2023-01-31T02:19:59;98100;;;1.8;91
51195;BME280;37259;49.972;19.850;2023-01-31T02:21:59;98100;;;1.8;90.9
51195;BME280;37259;49.972;19.850;2023-01-31T02:22:02;98100;;;1.8;90.9
51195;BME280;37259;49.972;19.850;2023-01-31T02:23:00;98120;;;1.8;90.9
51195;BME280;37259;49.972;19.850;2023-01-31T02:24:06;98120;;;1.8;90.9
51195;BME280;37259;49.972;19.850;2023-01-31T02:26:01;98110;;;1.8;90.9
51195;BME280;37259;49.972;19.850;2023-01-31T02:27:14;98120;;;1.8;90.7
51195;BME280;37259;49.972;19.850;2023-01-31T02:28:00;98120;;;1.8;90.7
51195;BME280;37259;49.972;19.850;2023-01-31T02:29:00;98120;;;1.8;90.7
51195;BME280;37259;49.972;19.850;2023-01-31T02:30:05;98120;;;1.8;90.7
51195;BME280;37259;49.972;19.850;2023-01-31T02:31:00;98120;;;1.8;90.7
51195;BME280;37259;49.972;19.850;2023-01-31T02:31:58;98130;;;1.8;90.7
51195;BME280;37259;49.972;19.850;2023-01-31T02:32:57;98130;;;1.8;90.7
51195;BME280;37259;49.972;19.850;2023-01-31T02:33:56;98130;;;1.8;90.7
51195;BME280;37259;49.972;19.850;2023-01-31T02:34:57;98130;;;1.8;90.7
51195;BME280;37259;49.972;19.850;2023-01-31T02:35:57;98130;;;1.8;90.7
51195;BME280;37259;49.972;19.850;2023-01-31T02:36:58;98130;;;1.8;90.7
51195;BME280;37259;49.972;19.850;2023-01-31T02:37:57;98140;;;1.9;90.7
51195;BME280;37259;49.972;19.850;2023-01-31T02:38:58;98140;;;1.9;90.7
51195;BME280;37259;49.972;19.850;2023-01-31T02:39:57;98130;;;1.9;90.5
51195;BME280;37259;49.972;19.850;2023-01-31T02:40:58;98130;;;1.9;90.5
51195;BME280;37259;49.972;19.850;2023-01-31T02:41:56;98140;;;1.9;90.5
51195;BME280;37259;49.972;19.850;2023-01-31T02:42:58;98140;;;1.9;90.5
51195;BME280;37259;49.972;19.850;2023-01-31T02:43:56;98140;;;1.9;90.5
51195;BME280;37259;49.972;19.850;2023-01-31T02:44:57;98140;;;1.9;90.5
51195;BME280;37259;49.972;19.850;2023-01-31T02:45:57;98150;;;1.9;90.4
51195;BME280;37259;49.972;19.850;2023-01-31T02:46:56;98150;;;1.9;90.4
51195;BME280;37259;49.972;19.850;2023-01-31T02:48:00;98150;;;1.9;90.3
51195;BME280;37259;49.972;19.850;2023-01-31T02:48:56;98160;;;1.9;90.2
51195;BME280;37259;49.972;19.850;2023-01-31T02:49:56;98160;;;1.9;90.2
51195;BME280;37259;49.972;19.850;2023-01-31T02:50:57;98150;;;1.9;90
51195;BME280;37259;49.972;19.850;2023-01-31T02:51:55;98150;;;1.9;90
51195;BME280;37259;49.972;19.850;2023-01-31T02:52:57;98150;;;1.9;89.9
51195;BME280;37259;49.972;19.850;2023-01-31T02:53:57;98150;;;1.9;89.9
51195;BME280;37259;49.972;19.850;2023-01-31T02:54:57;98150;;;1.9;89.9
51195;BME280;37259;49.972;19.850;2023-01-31T02:55:56;98160;;;2;89.9
51195;BME280;37259;49.972;19.850;2023-01-31T02:56:55;98160;;;2;89.9
51195;BME280;37259;49.972;19.850;2023-01-31T02:57:56;98160;;;2;89.8
51195;BME280;37259;49.972;19.850;2023-01-31T02:58:57;98160;;;2;89.7
51195;BME280;37259;49.972;19.850;2023-01-31T02:59:55;98160;;;2;89.6
51195;BME280;37259;49.972;19.850;2023-01-31T03:00:55;98160;;;2;89.6
51195;BME280;37259;49.972;19.850;2023-01-31T03:01:57;98170;;;2;89.5
51195;BME280;37259;49.972;19.850;2023-01-31T03:02:55;98170;;;2;89.5
51195;BME280;37259;49.972;19.850;2023-01-31T03:03:56;98170;;;2;89.5
51195;BME280;37259;49.972;19.850;2023-01-31T03:04:55;98170;;;2;89.2
51195;BME280;37259;49.972;19.850;2023-01-31T03:06:07;98170;;;2;89.2
51195;BME280;37259;49.972;19.850;2023-01-31T03:06:57;98170;;;2;89
51195;BME280;37259;49.972;19.850;2023-01-31T03:07:56;98170;;;2;89
51195;BME280;37259;49.972;19.850;2023-01-31T03:08:56;98160;;;2;88.7
51195;BME280;37259;49.972;19.850;2023-01-31T03:09:58;98160;;;2;88.7
51195;BME280;37259;49.972;19.850;2023-01-31T03:10:58;98170;;;2.1;88.2
51195;BME280;37259;49.972;19.850;2023-01-31T03:11:58;98170;;;2.1;88.2
51195;BME280;37259;49.972;19.850;2023-01-31T03:12:59;98180;;;2.1;88
51195;BME280;37259;49.972;19.850;2023-01-31T03:13:56;98180;;;2.1;88
51195;BME280;37259;49.972;19.850;2023-01-31T03:14:58;98190;;;2.1;87.6
51195;BME280;37259;49.972;19.850;2023-01-31T03:15:58;98190;;;2.1;87.6
51195;BME280;37259;49.972;19.850;2023-01-31T03:16:56;98190;;;2.1;87.1
51195;BME280;37259;49.972;19.850;2023-01-31T03:17:57;98190;;;2.1;87.1
51195;BME280;37259;49.972;19.850;2023-01-31T03:18:58;98190;;;2.1;86.9
51195;BME280;37259;49.972;19.850;2023-01-31T03:19:57;98190;;;2.1;86.9
51195;BME280;37259;49.972;19.850;2023-01-31T03:20:57;98190;;;2.1;86.8
51195;BME280;37259;49.972;19.850;2023-01-31T03:21:56;98190;;;2.1;86.6
51195;BME280;37259;49.972;19.850;2023-01-31T03:22:55;98190;;;2.1;86.6
51195;BME280;37259;49.972;19.850;2023-01-31T03:23:55;98190;;;2.1;86.5
51195;BME280;37259;49.972;19.850;2023-01-31T03:24:55;98190;;;2.1;86.4
51195;BME280;37259;49.972;19.850;2023-01-31T03:25:56;98190;;;2.1;86.4
51195;BME280;37259;49.972;19.850;2023-01-31T03:26:55;98190;;;2.1;86.5
51195;BME280;37259;49.972;19.850;2023-01-31T03:27:56;98190;;;2.1;86.5
51195;BME280;37259;49.972;19.850;2023-01-31T03:28:55;98190;;;2.2;86.5
51195;BME280;37259;49.972;19.850;2023-01-31T03:29:57;98190;;;2.2;86.3
51195;BME280;37259;49.972;19.850;2023-01-31T03:30:59;98190;;;2.2;86.3
51195;BME280;37259;49.972;19.850;2023-01-31T03:31:56;98200;;;2.1;86.3
51195;BME280;37259;49.972;19.850;2023-01-31T03:32:56;98200;;;2.1;86.3
51195;BME280;37259;49.972;19.850;2023-01-31T03:33:55;98200;;;2.1;86.2
51195;BME280;37259;49.972;19.850;2023-01-31T03:34:55;98200;;;2.1;86.2
51195;BME280;37259;49.972;19.850;2023-01-31T03:35:56;98200;;;2.1;86.2
51195;BME280;37259;49.972;19.850;2023-01-31T03:36:56;98210;;;2.1;86.2
51195;BME280;37259;49.972;19.850;2023-01-31T03:37:57;98210;;;2.1;86.2
51195;BME280;37259;49.972;19.850;2023-01-31T03:38:56;98210;;;2.1;86.2
51195;BME280;37259;49.972;19.850;2023-01-31T03:39:57;98210;;;2.1;86.2
51195;BME280;37259;49.972;19.850;2023-01-31T03:40:56;98210;;;2.1;86.2
51195;BME280;37259;49.972;19.850;2023-01-31T03:41:57;98220;;;2.1;86.3
51195;BME280;37259;49.972;19.850;2023-01-31T03:42:55;98220;;;2.1;86.3
51195;BME280;37259;49.972;19.850;2023-01-31T03:43:57;98210;;;2.1;86.3
51195;BME280;37259;49.972;19.850;2023-01-31T03:44:56;98220;;;2.1;86.3
51195;BME280;37259;49.972;19.850;2023-01-31T03:45:56;98220;;;2.1;86.3
51195;BME280;37259;49.972;19.850;2023-01-31T03:46:56;98220;;;2.1;86.2
51195;BME280;37259;49.972;19.850;2023-01-31T03:47:55;98220;;;2.1;86.2
51195;BME280;37259;49.972;19.850;2023-01-31T03:48:55;98220;;;2.1;86.2
51195;BME280;37259;49.972;19.850;2023-01-31T03:49:56;98220;;;2.1;86.2
51195;BME280;37259;49.972;19.850;2023-01-31T03:50:55;98230;;;2.1;86.2
51195;BME280;37259;49.972;19.850;2023-01-31T03:51:56;98220;;;2.1;86.3
51195;BME280;37259;49.972;19.850;2023-01-31T03:52:55;98220;;;2.1;86.3
51195;BME280;37259;49.972;19.850;2023-01-31T03:53:57;98230;;;2.1;86.3
51195;BME280;37259;49.972;19.850;2023-01-31T03:54:56;98230;;;2.1;86.3
51195;BME280;37259;49.972;19.850;2023-01-31T03:55:56;98230;;;2.1;86.3
51195;BME280;37259;49.972;19.850;2023-01-31T03:56:56;98240;;;2.1;86.4
51195;BME280;37259;49.972;19.850;2023-01-31T03:57:55;98240;;;2.1;86.3
51195;BME280;37259;49.972;19.850;2023-01-31T03:58:56;98240;;;2.1;86.3
51195;BME280;37259;49.972;19.850;2023-01-31T03:59:56;98240;;;2.1;86.3
51195;BME280;37259;49.972;19.850;2023-01-31T04:00:55;98240;;;2.1;86.3
51195;BME280;37259;49.972;19.850;2023-01-31T04:01:55;98240;;;2.1;86.3
51195;BME280;37259;49.972;19.850;2023-01-31T04:02:57;98240;;;2.1;86.3
51195;BME280;37259;49.972;19.850;2023-01-31T04:03:56;98240;;;2.1;86.3
51195;BME280;37259;49.972;19.850;2023-01-31T04:04:56;98230;;;2.1;86.2
51195;BME280;37259;49.972;19.850;2023-01-31T04:05:55;98230;;;2.1;86.2
51195;BME280;37259;49.972;19.850;2023-01-31T04:06:55;98240;;;2.1;86.2
51195;BME280;37259;49.972;19.850;2023-01-31T04:07:55;98240;;;2.1;86.3
51195;BME280;37259;49.972;19.850;2023-01-31T04:08:55;98240;;;2.1;86.3
51195;BME280;37259;49.972;19.850;2023-01-31T04:09:55;98240;;;2;86.4
51195;BME280;37259;49.972;19.850;2023-01-31T04:10:56;98240;;;2;86.4
51195;BME280;37259;49.972;19.850;2023-01-31T04:11:55;98250;;;2;86.4
51195;BME280;37259;49.972;19.850;2023-01-31T04:12:55;98250;;;2;86.5
51195;BME280;37259;49.972;19.850;2023-01-31T04:13:55;98250;;;2;86.5
51195;BME280;37259;49.972;19.850;2023-01-31T04:14:55;98250;;;2;86.6
51195;BME280;37259;49.972;19.850;2023-01-31T04:15:55;98260;;;2;86.7
51195;BME280;37259;49.972;19.850;2023-01-31T04:16:55;98260;;;2;86.7
51195;BME280;37259;49.972;19.850;2023-01-31T04:17:55;98260;;;2;86.9
51195;BME280;37259;49.972;19.850;2023-01-31T04:18:55;98260;;;2;87.1
51195;BME280;37259;49.972;19.850;2023-01-31T04:19:55;98270;;;2;87.1
51195;BME280;37259;49.972;19.850;2023-01-31T04:20:55;98260;;;2;87.2
51195;BME280;37259;49.972;19.850;2023-01-31T04:21:55;98260;;;2;87.2
51195;BME280;37259;49.972;19.850;2023-01-31T04:22:55;98260;;;2;87.1
51195;BME280;37259;49.972;19.850;2023-01-31T04:23:55;98270;;;2;87.1
51195;BME280;37259;49.972;19.850;2023-01-31T04:24:55;98250;;;1.9;87.1
51195;BME280;37259;49.972;19.850;2023-01-31T04:25:55;98250;;;1.9;87.1
51195;BME280;37259;49.972;19.850;2023-01-31T04:26:55;98270;;;1.9;86.9
51195;BME280;37259;49.972;19.850;2023-01-31T04:27:55;98270;;;1.9;86.9
51195;BME280;37259;49.972;19.850;2023-01-31T04:28:55;98260;;;1.9;87
51195;BME280;37259;49.972;19.850;2023-01-31T04:29:55;98260;;;1.9;87
51195;BME280;37259;49.972;19.850;2023-01-31T04:30:55;98270;;;1.8;87.1
51195;BME280;37259;49.972;19.850;2023-01-31T04:31:55;98270;;;1.8;87.1
51195;BME280;37259;49.972;19.850;2023-01-31T04:32:55;98270;;;1.8;87.2
51195;BME280;37259;49.972;19.850;2023-01-31T04:33:55;98270;;;1.8;87.2
51195;BME280;37259;49.972;19.850;2023-01-31T04:34:55;98260;;;1.8;87
51195;BME280;37259;49.972;19.850;2023-01-31T04:35:55;98260;;;1.8;87
51195;BME280;37259;49.972;19.850;2023-01-31T04:36:55;98270;;;1.8;86.9
51195;BME280;37259;49.972;19.850;2023-01-31T04:37:55;98270;;;1.8;86.9
51195;BME280;37259;49.972;19.850;2023-01-31T04:38:55;98270;;;1.8;86.9
51195;BME280;37259;49.972;19.850;2023-01-31T04:39:55;98280;;;1.7;86.5
51195;BME280;37259;49.972;19.850;2023-01-31T04:40:55;98280;;;1.7;86.5
51195;BME280;37259;49.972;19.850;2023-01-31T04:41:55;98280;;;1.7;86.6
51195;BME280;37259;49.972;19.850;2023-01-31T04:42:55;98290;;;1.7;86.6
51195;BME280;37259;49.972;19.850;2023-01-31T04:43:55;98290;;;1.7;86.8
51195;BME280;37259;49.972;19.850;2023-01-31T04:44:55;98290;;;1.7;86.8
51195;BME280;37259;49.972;19.850;2023-01-31T04:45:55;98300;;;1.7;87.2
51195;BME280;37259;49.972;19.850;2023-01-31T04:46:55;98300;;;1.6;87.4
51195;BME280;37259;49.972;19.850;2023-01-31T04:47:55;98300;;;1.6;87.8
51195;BME280;37259;49.972;19.850;2023-01-31T04:48:55;98300;;;1.6;87.8
51195;BME280;37259;49.972;19.850;2023-01-31T04:49:55;98300;;;1.6;88
51195;BME280;37259;49.972;19.850;2023-01-31T04:50:55;98300;;;1.5;88.2
51195;BME280;37259;49.972;19.850;2023-01-31T04:51:55;98310;;;1.5;88.4
51195;BME280;37259;49.972;19.850;2023-01-31T04:52:55;98310;;;1.5;88.4
51195;BME280;37259;49.972;19.850;2023-01-31T04:53:55;98310;;;1.5;88.9
51195;BME280;37259;49.972;19.850;2023-01-31T04:54:55;98310;;;1.5;88.9
51195;BME280;37259;49.972;19.850;2023-01-31T04:55:55;98310;;;1.4;89.4
51195;BME280;37259;49.972;19.850;2023-01-31T04:56:55;98310;;;1.4;89.6
51195;BME280;37259;49.972;19.850;2023-01-31T04:57:55;98310;;;1.4;89.7
51195;BME280;37259;49.972;19.850;2023-01-31T04:58:55;98310;;;1.4;89.7
51195;BME280;37259;49.972;19.850;2023-01-31T04:59:55;98320;;;1.3;89.8
51195;BME280;37259;49.972;19.850;2023-01-31T05:00:55;98320;;;1.3;89.8
51195;BME280;37259;49.972;19.850;2023-01-31T05:01:55;98320;;;1.3;89.8
51195;BME280;37259;49.972;19.850;2023-01-31T05:02:55;98330;;;1.3;89.9
51195;BME280;37259;49.972;19.850;2023-01-31T05:03:55;98330;;;1.3;89.9
51195;BME280;37259;49.972;19.850;2023-01-31T05:04:55;98340;;;1.3;89.9
51195;BME280;37259;49.972;19.850;2023-01-31T05:05:55;98340;;;1.3;89.9
51195;BME280;37259;49.972;19.850;2023-01-31T05:06:55;98330;;;1.2;90.1
51195;BME280;37259;49.972;19.850;2023-01-31T05:07:55;98330;;;1.3;90
51195;BME280;37259;49.972;19.850;2023-01-31T05:08:55;98330;;;1.3;90
51195;BME280;37259;49.972;19.850;2023-01-31T05:09:55;98330;;;1.3;90
51195;BME280;37259;49.972;19.850;2023-01-31T05:10:56;98330;;;1.3;89.9
51195;BME280;37259;49.972;19.850;2023-01-31T05:11:55;98330;;;1.3;89.9
51195;BME280;37259;49.972;19.850;2023-01-31T05:12:55;98330;;;1.2;89.9
51195;BME280;37259;49.972;19.850;2023-01-31T05:13:55;98340;;;1.2;90
51195;BME280;37259;49.972;19.850;2023-01-31T05:14:55;98340;;;1.2;90
51195;BME280;37259;49.972;19.850;2023-01-31T05:15:55;98340;;;1.2;90
51195;BME280;37259;49.972;19.850;2023-01-31T05:16:55;98350;;;1.3;89.9
51195;BME280;37259;49.972;19.850;2023-01-31T05:17:55;98350;;;1.3;89.8
51195;BME280;37259;49.972;19.850;2023-01-31T05:18:55;98350;;;1.3;89.8
51195;BME280;37259;49.972;19.850;2023-01-31T05:19:55;98350;;;1.3;89.7
51195;BME280;37259;49.972;19.850;2023-01-31T05:20:55;98350;;;1.3;89.7
51195;BME280;37259;49.972;19.850;2023-01-31T05:21:55;98350;;;1.2;89.7
51195;BME280;37259;49.972;19.850;2023-01-31T05:22:55;98350;;;1.2;89.7
51195;BME280;37259;49.972;19.850;2023-01-31T05:23:55;98350;;;1.3;89.7
51195;BME280;37259;49.972;19.850;2023-01-31T05:24:55;98350;;;1.3;89.7
51195;BME280;37259;49.972;19.850;2023-01-31T05:25:55;98360;;;1.2;89.7
51195;BME280;37259;49.972;19.850;2023-01-31T05:26:55;98360;;;1.2;89.7
51195;BME280;37259;49.972;19.850;2023-01-31T05:27:55;98360;;;1.2;89.7
51195;BME280;37259;49.972;19.850;2023-01-31T05:28:55;98360;;;1.2;89.7
51195;BME280;37259;49.972;19.850;2023-01-31T05:29:55;98370;;;1.2;89.6
51195;BME280;37259;49.972;19.850;2023-01-31T05:31:00;98370;;;1.2;89.5
51195;BME280;37259;49.972;19.850;2023-01-31T05:31:56;98370;;;1.2;89.5
51195;BME280;37259;49.972;19.850;2023-01-31T05:32:55;98390;;;1.1;89.5
51195;BME280;37259;49.972;19.850;2023-01-31T05:33:55;98390;;;1.1;89.4
51195;BME280;37259;49.972;19.850;2023-01-31T05:34:55;98380;;;1.1;89.4
51195;BME280;37259;49.972;19.850;2023-01-31T05:35:55;98380;;;1.1;89.4
51195;BME280;37259;49.972;19.850;2023-01-31T05:36:55;98380;;;1.1;89.3
51195;BME280;37259;49.972;19.850;2023-01-31T05:37:55;98380;;;1.1;89.3
51195;BME280;37259;49.972;19.850;2023-01-31T05:38:55;98390;;;1.1;89.3
51195;BME280;37259;49.972;19.850;2023-01-31T05:39:55;98380;;;1.1;89.3
51195;BME280;37259;49.972;19.850;2023-01-31T05:40:55;98390;;;1.1;89.3
51195;BME280;37259;49.972;19.850;2023-01-31T05:41:55;98390;;;1.1;89.3
51195;BME280;37259;49.972;19.850;2023-01-31T05:42:55;98390;;;1.1;89.5
51195;BME280;37259;49.972;19.850;2023-01-31T05:43:55;98390;;;1.1;89.5
51195;BME280;37259;49.972;19.850;2023-01-31T05:44:55;98400;;;1.1;89.5